Time;durP1;ratioP1;P1;durP2;ratioP2;P2;SDS_P1;SDS_P2;PMS_P1;PMS_P2;Temp;Humidity;BMP_temperature;BMP_pressure;BME280_temperature;BME280_humidity;BME280_pressure;Samples;Min_cycle;Max_cycle;Signal;HPM_P1;HPM_P2
2022/07/18 00:01:45;;;;;;;;;10.00;10.00;;;;;27.19;44.28;101854.41;6308851;22;47126;-95
2022/07/18 00:04:10;;;;;;;;;9.00;9.00;;;;;27.26;44.19;101878.63;6308126;22;45258;-96
2022/07/18 00:06:35;;;;;;;;;11.00;10.00;;;;;27.15;44.33;101866.13;6308608;22;45615;-95
2022/07/18 00:09:02;;;;;;;;;9.67;8.67;;;;;27.17;44.60;101880.47;6308493;22;45252;-96
2022/07/18 00:11:27;;;;;;;;;11.00;10.67;;;;;27.11;44.64;101861.63;6308235;22;47292;-96
2022/07/18 00:13:52;;;;;;;;;11.67;9.00;;;;;27.07;45.08;101876.00;6308122;22;45989;-95
2022/07/18 00:16:18;;;;;;;;;10.00;10.00;;;;;26.98;44.73;101867.06;6308869;22;45175;-96
2022/07/18 00:18:44;;;;;;;;;7.00;7.00;;;;;26.85;44.94;101854.59;6307848;22;45231;-95
2022/07/18 00:21:10;;;;;;;;;10.67;9.00;;;;;26.92;45.12;101861.75;6308719;22;47136;-95
2022/07/18 00:23:35;;;;;;;;;9.67;8.67;;;;;26.88;45.45;101862.63;6307924;22;45381;-96
2022/07/18 00:26:00;;;;;;;;;10.00;9.00;;;;;26.84;45.12;101872.56;6308584;22;45333;-94
2022/07/18 00:28:26;;;;;;;;;11.67;9.00;;;;;26.80;45.52;101862.72;6336398;22;45473;-96
2022/07/18 00:30:52;;;;;;;;;9.67;7.33;;;;;26.75;45.99;101865.41;6308461;22;47016;-95
2022/07/18 00:33:17;;;;;;;;;8.00;8.00;;;;;26.72;45.64;101868.13;6307765;22;45387;-95
2022/07/18 00:35:42;;;;;;;;;9.00;8.00;;;;;26.69;46.12;101865.44;6308680;22;45254;-96
2022/07/18 00:38:08;;;;;;;;;11.00;10.00;;;;;26.62;45.93;101861.00;6308535;22;45591;-96
2022/07/18 00:40:33;;;;;;;;;10.67;9.67;;;;;26.51;46.02;101848.47;6307633;22;47995;-95
2022/07/18 00:42:59;;;;;;;;;9.67;8.00;;;;;26.54;46.05;101858.34;6308100;22;45917;-96
2022/07/18 00:45:24;;;;;;;;;11.00;10.00;;;;;26.53;46.28;101864.63;6308037;22;45266;-95
2022/07/18 00:47:51;;;;;;;;;9.67;9.33;;;;;26.47;46.44;101862.84;6308392;22;45519;-96
2022/07/18 00:50:17;;;;;;;;;10.00;9.33;;;;;26.48;46.52;101871.81;6333729;22;47199;-96
2022/07/18 00:52:43;;;;;;;;;9.00;8.33;;;;;26.40;46.87;101861.94;6334363;22;45258;-95
2022/07/18 00:55:08;;;;;;;;;10.33;9.00;;;;;26.44;46.67;101866.44;6307778;22;45180;-95
2022/07/18 00:57:35;;;;;;;;;11.67;10.67;;;;;26.30;46.96;101838.66;6308714;22;45417;-96
2022/07/18 01:02:45;;;;;;;;;9.00;8.00;;;;;26.18;47.00;101837.78;6336270;22;45516;-96
2022/07/18 01:05:10;;;;;;;;;10.33;9.67;;;;;26.18;47.33;101845.84;6308323;22;45407;-95
2022/07/18 01:07:36;;;;;;;;;10.50;10.50;;;;;26.16;47.19;101846.75;6307993;22;45294;-96
2022/07/18 01:10:04;;;;;;;;;10.00;10.00;;;;;26.04;47.42;101829.75;6307705;22;47405;-96
2022/07/18 01:12:30;;;;;;;;;8.00;8.00;;;;;26.16;47.38;101860.19;6307813;22;45210;-96
2022/07/18 01:14:57;;;;;;;;;10.00;8.67;;;;;26.07;47.71;101845.91;6308322;22;45407;-96
2022/07/18 01:17:23;;;;;;;;;10.00;9.00;;;;;26.08;47.39;101853.06;6308297;22;45559;-96
2022/07/18 01:19:49;;;;;;;;;11.33;10.00;;;;;26.01;47.75;101845.91;6307365;22;46843;-95
2022/07/18 01:22:17;;;;;;;;;8.67;7.67;;;;;25.97;47.77;101845.03;6307980;22;45308;-96
2022/07/18 01:24:43;;;;;;;;;11.33;10.00;;;;;25.94;47.90;101858.47;6307984;22;45377;-96
2022/07/18 01:27:17;;;;;;;;;9.00;8.33;;;;;25.86;48.44;101855.78;6308140;22;45388;-96
2022/07/18 01:29:43;;;;;;;;;11.33;10.67;;;;;25.82;48.06;101856.69;6307548;22;47080;-96
2022/07/18 01:32:09;;;;;;;;;9.00;9.00;;;;;25.80;48.41;101853.09;6307947;22;45433;-96
2022/07/18 01:34:35;;;;;;;;;12.50;11.50;;;;;25.85;48.47;101874.59;6307668;22;45327;-96
2022/07/18 01:37:02;;;;;;;;;12.67;10.00;;;;;25.65;48.39;101841.44;6308079;22;45523;-96
2022/07/18 01:39:27;;;;;;;;;15.00;13.33;;;;;25.74;48.44;101856.72;6307240;22;46972;-96
2022/07/18 01:42:03;;;;;;;;;13.33;12.00;;;;;25.75;48.22;101853.13;6334534;22;45655;-96
2022/07/18 01:44:29;;;;;;;;;13.00;11.50;;;;;25.63;48.24;101845.94;6307304;22;45405;-96
2022/07/18 01:46:55;;;;;;;;;12.00;11.00;;;;;25.64;48.47;101852.22;6334370;22;45494;-96
2022/07/18 01:49:22;;;;;;;;;12.67;10.67;;;;;25.47;48.75;101825.31;6307443;22;47927;-96
2022/07/18 01:51:51;;;;;;;;;11.00;11.00;;;;;25.59;48.79;101854.00;6307568;22;45362;-95
2022/07/18 01:54:19;;;;;;;;;12.67;12.00;;;;;25.40;48.88;101822.66;6308065;22;45270;-96
2022/07/18 01:56:45;;;;;;;;;11.67;10.67;;;;;25.46;49.11;101829.81;6307821;22;45527;-96
2022/07/18 01:59:10;;;;;;;;;15.00;11.00;;;;;25.46;49.06;101827.13;6307085;22;47563;-95
2022/07/18 02:01:35;;;;;;;;;11.00;10.00;;;;;25.31;49.07;101809.19;6307669;22;45497;-96
2022/07/18 02:04:01;;;;;;;;;13.33;10.00;;;;;25.41;49.32;101819.03;6309019;22;45391;-96
2022/07/18 02:06:26;;;;;;;;;12.67;9.33;;;;;25.32;49.32;101800.25;6309634;22;45378;-96
2022/07/18 02:08:51;;;;;;;;;10.33;10.33;;;;;25.35;49.55;101807.41;6308927;22;48268;-96
2022/07/18 02:11:17;;;;;;;;;11.00;11.00;;;;;25.40;49.60;101819.97;6309354;22;45864;-96
2022/07/18 02:13:42;;;;;;;;;10.33;10.33;;;;;25.35;49.87;101818.16;6308860;22;45562;-95
2022/07/18 02:16:08;;;;;;;;;11.00;10.67;;;;;25.32;50.32;101829.81;6309089;22;45550;-95
2022/07/18 02:18:33;;;;;;;;;15.33;10.00;;;;;25.22;50.17;101816.38;6308739;22;48231;-95
2022/07/18 02:20:59;;;;;;;;;14.67;12.33;;;;;25.26;50.18;101835.16;6309282;22;46026;-96
2022/07/18 02:23:25;;;;;;;;;11.33;9.67;;;;;25.28;49.95;101834.25;6308267;22;45348;-96
2022/07/18 02:25:51;;;;;;;;;12.00;10.67;;;;;25.11;49.83;101802.03;6309725;22;45234;-96
2022/07/18 02:28:16;;;;;;;;;13.33;9.33;;;;;25.19;49.82;101816.38;6308313;22;46990;-96
2022/07/18 02:30:42;;;;;;;;;8.00;8.00;;;;;25.08;49.95;101804.69;6308904;22;45198;-96
2022/07/18 02:33:07;;;;;;;;;11.00;10.00;;;;;25.13;50.11;101812.78;6309102;22;45266;-96
2022/07/18 02:35:32;;;;;;;;;10.00;9.00;;;;;25.21;50.42;101822.63;6309588;22;45384;-96
2022/07/18 02:37:58;;;;;;;;;14.67;11.00;;;;;25.15;50.24;101819.06;6308956;22;47226;-96
2022/07/18 02:40:23;;;;;;;;;11.00;11.00;;;;;25.10;50.40;101829.78;6308947;22;45540;-96
2022/07/18 02:42:49;;;;;;;;;8.67;8.67;;;;;25.01;50.18;101822.59;6308747;22;45472;-96
2022/07/18 02:45:14;;;;;;;;;11.67;11.67;;;;;24.95;50.48;101817.16;6308073;22;45160;-95
2022/07/18 02:47:40;;;;;;;;;11.00;9.00;;;;;25.02;50.33;101834.25;6309143;22;46933;-95
2022/07/18 02:50:06;;;;;;;;;7.00;7.00;;;;;24.97;50.63;101820.78;6308623;22;45434;-96
2022/07/18 02:52:32;;;;;;;;;12.67;12.00;;;;;24.94;50.67;101828.81;6335180;22;45428;-95
2022/07/18 02:55:00;;;;;;;;;12.00;10.67;;;;;24.90;50.62;101825.22;6334682;22;45477;-96
2022/07/18 02:57:25;;;;;;;;;11.00;11.00;;;;;24.74;50.83;101817.13;6308542;22;47461;-95
2022/07/18 02:59:51;;;;;;;;;12.00;12.00;;;;;24.78;50.72;101829.69;6308526;22;45612;-95
2022/07/18 03:02:16;;;;;;;;;11.67;11.67;;;;;24.75;50.98;101823.41;6308904;22;45292;-95
2022/07/18 03:04:42;;;;;;;;;16.67;13.67;;;;;24.71;50.85;101826.97;6308048;22;45396;-95
2022/07/18 03:07:07;;;;;;;;;10.00;10.00;;;;;24.80;51.58;101842.19;6308593;22;47759;-94
2022/07/18 03:09:32;;;;;;;;;12.00;12.00;;;;;24.67;51.19;101829.66;6334485;22;45253;-96
2022/07/18 03:11:58;;;;;;;;;13.00;13.00;;;;;24.77;51.38;101844.00;6335018;22;45260;-96
2022/07/18 03:14:23;;;;;;;;;12.33;11.00;;;;;24.65;51.26;101827.84;6308644;22;45278;-96
2022/07/18 03:16:49;;;;;;;;;15.00;15.00;;;;;24.75;51.39;101834.13;6308824;22;46984;-96
2022/07/18 03:19:14;;;;;;;;;17.00;15.00;;;;;24.72;50.99;101823.38;6308711;22;45198;-96
2022/07/18 03:21:40;;;;;;;;;16.00;14.25;;;;;24.73;51.31;101827.88;6309212;22;45573;-96
2022/07/18 03:24:05;;;;;;;;;18.33;18.00;;;;;24.71;51.01;101822.50;6308523;22;45546;-96
2022/07/18 03:26:31;;;;;;;;;8.67;7.33;;;;;24.60;51.12;101805.47;6334758;22;47289;-96
2022/07/18 03:28:56;;;;;;;;;13.00;13.00;;;;;24.58;51.26;101804.56;6334966;22;45545;-96
2022/07/18 03:31:21;;;;;;;;;15.50;13.75;;;;;24.58;51.55;101804.56;6335541;22;45366;-96
2022/07/18 03:33:47;;;;;;;;;19.50;16.00;;;;;24.60;51.49;101805.47;6308451;22;45368;-96
2022/07/18 03:36:12;;;;;;;;;17.75;15.50;;;;;24.52;51.46;101798.28;6335448;22;47164;-95
2022/07/18 03:38:42;;;;;;;;;16.75;15.00;;;;;24.49;51.74;101792.91;6334424;22;45411;-96
2022/07/18 03:41:09;;;;;;;;;16.50;14.25;;;;;24.47;51.80;101793.78;6309218;22;45166;-96
2022/07/18 03:43:35;;;;;;;;;16.50;14.00;;;;;24.51;51.84;101819.72;6308828;22;45510;-96
2022/07/18 03:46:00;;;;;;;;;14.00;11.50;;;;;24.40;51.79;101791.09;6308393;22;47440;-96
2022/07/18 03:48:25;;;;;;;;;15.33;15.33;;;;;24.35;51.70;101779.44;6308742;22;45292;-95
2022/07/18 03:50:51;;;;;;;;;14.00;14.00;;;;;24.37;51.97;101796.44;6309288;22;45387;-96
2022/07/18 03:53:16;;;;;;;;;18.00;14.67;;;;;24.33;51.92;101800.88;6308245;22;45402;-95
2022/07/18 03:55:41;;;;;;;;;13.67;12.33;;;;;24.40;52.00;101812.56;6313701;22;46931;-96
2022/07/18 03:58:07;;;;;;;;;15.75;13.75;;;;;24.25;52.19;101794.56;6335953;22;45387;-95
2022/07/18 04:00:33;;;;;;;;;16.25;13.50;;;;;24.22;52.21;101794.56;6309394;22;45781;-95
2022/07/18 04:02:59;;;;;;;;;14.25;13.00;;;;;24.28;52.41;101817.84;6309421;22;45766;-96
2022/07/18 04:05:24;;;;;;;;;19.75;18.00;;;;;24.22;52.68;101810.66;6309109;22;47048;-96
2022/07/18 04:07:49;;;;;;;;;13.00;12.67;;;;;24.21;52.48;101815.13;6308933;22;45732;-95
2022/07/18 04:10:15;;;;;;;;;14.00;11.33;;;;;24.19;52.53;101810.63;6308265;22;45293;-96
2022/07/18 04:12:48;;;;;;;;;11.00;11.00;;;;;24.25;52.61;101820.50;6308689;22;45411;-95
2022/07/18 04:15:15;;;;;;;;;12.33;11.00;;;;;24.25;52.37;101823.19;6308534;22;48195;-96
2022/07/18 04:17:40;;;;;;;;;15.00;12.00;;;;;24.19;52.44;101811.53;6308131;22;45602;-96
2022/07/18 04:20:08;;;;;;;;;15.00;13.00;;;;;24.08;52.38;101800.75;6308862;22;45175;-96
2022/07/18 04:22:47;;;;;;;;;13.33;12.33;;;;;24.19;52.66;101808.84;6312899;22;45541;-96
2022/07/18 04:25:12;;;;;;;;;12.33;11.33;;;;;24.19;52.45;101797.22;6308238;22;47142;-96
2022/07/18 04:27:38;;;;;;;;;13.33;10.33;;;;;24.15;52.33;101793.63;6308477;22;45437;-96
2022/07/18 04:30:04;;;;;;;;;11.33;11.33;;;;;24.21;52.39;101799.03;6308943;22;45560;-96
2022/07/18 04:32:29;;;;;;;;;12.00;11.33;;;;;24.21;52.19;101793.66;6335087;22;45383;-96
2022/07/18 04:34:54;;;;;;;;;14.25;13.00;;;;;24.16;52.23;101779.31;6308244;22;47408;-96
2022/07/18 04:37:20;;;;;;;;;11.00;11.00;;;;;24.25;52.28;101786.50;6308730;22;45728;-96
2022/07/18 04:39:45;;;;;;;;;19.50;15.00;;;;;24.27;52.35;101782.09;6308262;22;45363;-96
2022/07/18 04:42:11;;;;;;;;;13.00;12.00;;;;;24.26;52.71;101764.19;6334597;22;45380;-96
2022/07/18 04:44:36;;;;;;;;;12.67;11.00;;;;;24.20;52.68;101751.63;6307482;22;48522;-96
2022/07/18 04:47:01;;;;;;;;;12.33;12.33;;;;;24.32;52.72;101772.28;6308539;22;45304;-96
2022/07/18 04:49:27;;;;;;;;;14.00;12.33;;;;;24.32;53.03;101766.03;6307842;22;45174;-96
2022/07/18 04:51:52;;;;;;;;;13.33;12.00;;;;;24.40;53.00;101774.09;6308475;22;45320;-96
2022/07/18 04:54:17;;;;;;;;;12.00;11.00;;;;;24.38;53.01;101760.66;6308003;22;47219;-96
2022/07/18 04:56:42;;;;;;;;;13.67;12.67;;;;;24.39;53.23;101748.16;6308552;22;45221;-95
2022/07/18 04:59:08;;;;;;;;;13.67;11.67;;;;;24.40;53.48;101749.94;6334920;22;45282;-96
2022/07/18 05:01:35;;;;;;;;;13.33;13.00;;;;;24.47;53.20;101754.44;6308632;22;45183;-96
2022/07/18 05:04:00;;;;;;;;;12.33;10.00;;;;;24.51;53.59;101748.19;6307737;22;47254;-96
2022/07/18 05:06:26;;;;;;;;;12.67;12.00;;;;;24.51;53.34;101745.50;6307962;22;45437;-96
2022/07/18 05:08:51;;;;;;;;;10.00;10.00;;;;;24.59;53.71;101741.94;6334003;22;45467;-96
2022/07/18 05:11:16;;;;;;;;;13.67;12.33;;;;;24.60;53.92;101725.84;6308749;22;45282;-96
2022/07/18 05:13:42;;;;;;;;;11.67;11.67;;;;;24.59;54.24;101717.78;6307675;22;47046;-96
2022/07/18 05:16:07;;;;;;;;;15.33;12.33;;;;;24.66;54.65;101717.78;6308260;22;45384;-96
2022/07/18 05:18:32;;;;;;;;;13.00;10.00;;;;;24.66;54.08;101701.69;6307892;22;45726;-96
2022/07/18 05:20:58;;;;;;;;;14.33;13.33;;;;;24.67;54.30;101700.81;6308141;22;45380;-96
2022/07/18 05:23:24;;;;;;;;;16.00;11.00;;;;;24.82;54.03;101708.84;6307418;22;48071;-96
2022/07/18 05:25:49;;;;;;;;;11.00;10.67;;;;;24.77;54.14;101701.72;6308264;22;45349;-96
2022/07/18 05:28:15;;;;;;;;;12.00;12.00;;;;;24.90;53.89;101725.88;6307534;22;45386;-95
2022/07/18 05:30:40;;;;;;;;;12.33;11.33;;;;;25.03;53.98;101760.81;6308145;22;45411;-96
2022/07/18 05:33:05;;;;;;;;;13.00;13.00;;;;;25.05;53.96;101772.50;6307579;22;47093;-96
2022/07/18 05:35:31;;;;;;;;;14.33;14.33;;;;;25.03;53.55;101763.50;6333649;22;45695;-96
2022/07/18 05:37:56;;;;;;;;;16.33;12.00;;;;;25.16;53.24;101781.44;6308915;22;45238;-96
2022/07/18 05:40:22;;;;;;;;;16.33;12.67;;;;;25.18;53.21;101771.56;6334970;22;45249;-95
2022/07/18 05:42:49;;;;;;;;;9.67;7.33;;;;;25.29;52.65;101770.69;6309053;22;46855;-95
2022/07/18 05:45:14;;;;;;;;;13.33;12.00;;;;;25.39;52.54;101776.94;6310559;22;45658;-95
2022/07/18 05:47:40;;;;;;;;;19.67;16.00;;;;;25.39;52.48;101763.50;6310508;22;45305;-95
2022/07/18 05:50:06;;;;;;;;;10.67;10.67;;;;;25.53;52.55;101783.22;6310515;22;45578;-95
2022/07/18 05:52:32;;;;;;;;;15.33;11.33;;;;;25.64;52.25;101790.38;6310282;22;48458;-94
2022/07/18 05:54:57;;;;;;;;;14.00;10.67;;;;;25.72;52.26;101785.00;6311424;22;45313;-96
2022/07/18 05:57:29;;;;;;;;;11.33;8.67;;;;;25.72;52.04;101771.56;6329402;22;45273;-96
2022/07/18 06:02:40;;;;;;;;;10.67;10.67;;;;;25.92;51.88;101762.56;6325000;22;45771;-96
2022/07/18 06:05:08;;;;;;;;;11.00;10.00;;;;;25.98;51.60;101755.34;6309977;22;44747;-95
2022/07/18 06:10:11;;;;;;;;;12.67;11.00;;;;;26.21;51.43;101772.31;6324669;22;45203;-96
2022/07/18 06:13:19;;;;;;;;;7.00;7.00;;;;;26.17;51.07;101752.59;6274953;22;45235;-96
2022/07/18 06:16:02;;;;;;;;;6.00;6.00;;;;;26.28;51.12;101759.72;6300816;22;44694;-96
2022/07/18 06:18:30;;;;;;;;;9.67;9.00;;;;;26.48;50.99;101783.88;6269626;22;44761;-96
2022/07/18 06:21:15;;;;;;;;;11.33;9.33;;;;;26.42;50.89;101752.47;6316222;22;45274;-96
2022/07/18 06:23:47;;;;;;;;;11.00;9.67;;;;;26.64;51.04;101778.41;6308542;22;45771;-96
2022/07/18 06:26:12;;;;;;;;;8.67;8.33;;;;;26.75;50.77;101779.22;6316386;22;45261;-96
2022/07/18 06:28:38;;;;;;;;;13.33;8.00;;;;;26.81;50.47;101783.69;6316503;22;45162;-96
2022/07/18 06:31:03;;;;;;;;;10.33;8.67;;;;;26.86;50.24;101780.97;6316935;22;45202;-94
2022/07/18 06:33:28;;;;;;;;;9.33;9.33;;;;;26.92;50.49;101778.25;6308357;22;47931;-93
2022/07/18 06:35:54;;;;;;;;;10.00;8.00;;;;;27.04;50.29;101785.31;6310260;22;45824;-93
2022/07/18 06:38:19;;;;;;;;;9.33;9.33;;;;;27.10;50.50;101793.38;6308069;22;45507;-92
2022/07/18 06:40:44;;;;;;;;;9.33;8.00;;;;;27.17;50.40;101790.66;6310062;22;45250;-93
2022/07/18 06:43:10;;;;;;;;;9.67;8.67;;;;;27.29;50.67;101792.38;6334715;22;46828;-92
2022/07/18 06:45:35;;;;;;;;;7.00;7.00;;;;;27.33;50.03;101784.22;6306540;22;45895;-92
2022/07/18 06:48:01;;;;;;;;;7.67;6.00;;;;;27.43;49.95;101785.03;6335572;22;45517;-96
2022/07/18 06:50:27;;;;;;;;;8.00;7.67;;;;;27.51;50.03;101793.06;6302002;22;45253;-91
2022/07/18 06:52:52;;;;;;;;;9.33;9.33;;;;;27.55;49.72;101780.41;6335018;22;45590;-92
2022/07/18 06:55:18;;;;;;;;;10.67;9.00;;;;;27.63;49.42;101791.13;6305926;22;45289;-93
2022/07/18 06:57:44;;;;;;;;;9.00;8.00;;;;;27.65;49.68;101792.03;6342090;22;45218;-93
2022/07/18 07:00:14;;;;;;;;;9.67;9.00;;;;;27.77;49.71;101799.09;6303929;22;45263;-92
2022/07/18 07:02:44;;;;;;;;;10.33;9.00;;;;;27.85;49.83;101808.03;6334860;22;46179;-92
2022/07/18 07:05:11;;;;;;;;;9.00;7.67;;;;;27.87;49.13;101803.50;6332198;22;45658;-93
2022/07/18 07:07:36;;;;;;;;;10.00;7.33;;;;;27.94;49.07;101798.03;6334993;22;45563;-93
2022/07/18 07:10:03;;;;;;;;;11.67;8.00;;;;;28.06;49.19;101800.63;6334155;22;45332;-91
2022/07/18 07:12:28;;;;;;;;;10.00;9.67;;;;;28.10;49.20;101791.56;6334826;22;45458;-92
2022/07/18 07:14:53;;;;;;;;;8.67;8.00;;;;;28.22;49.14;101800.41;6306628;22;51181;-92
2022/07/18 07:17:19;;;;;;;;;8.33;8.33;;;;;28.27;48.73;101794.97;6307088;22;45426;-91
2022/07/18 07:19:44;;;;;;;;;10.00;9.67;;;;;28.33;48.46;101797.56;6306594;22;45359;-91
2022/07/18 07:22:10;;;;;;;;;7.00;7.00;;;;;28.44;48.95;101800.13;6334805;22;46116;-92
2022/07/18 07:24:36;;;;;;;;;9.67;7.67;;;;;28.52;48.63;101795.56;6304742;22;45271;-92
2022/07/18 07:27:02;;;;;;;;;9.67;6.33;;;;;28.55;48.75;101779.31;6306970;22;45407;-91
2022/07/18 07:29:27;;;;;;;;;10.00;8.00;;;;;28.67;48.92;101791.75;6335641;22;45289;-91
2022/07/18 07:31:52;;;;;;;;;10.67;8.00;;;;;28.75;48.81;101788.94;6303362;22;50932;-92
2022/07/18 07:34:17;;;;;;;;;10.33;9.67;;;;;28.86;47.94;101793.28;6304987;22;50037;-96
2022/07/18 07:36:43;;;;;;;;;13.33;11.00;;;;;28.94;48.56;101791.34;6307534;22;45447;-93
2022/07/18 07:39:08;;;;;;;;;13.33;7.67;;;;;29.02;48.65;101788.50;6305443;22;45439;-92
2022/07/18 07:41:34;;;;;;;;;11.33;9.00;;;;;29.11;48.38;101780.31;6302452;22;47501;-94
2022/07/18 07:44:01;;;;;;;;;9.67;7.67;;;;;29.22;48.27;101781.94;6304513;22;45687;-91
2022/07/18 07:46:26;;;;;;;;;13.00;9.00;;;;;29.29;48.02;101767.38;6304683;22;45398;-92
2022/07/18 07:48:52;;;;;;;;;10.00;8.00;;;;;29.38;48.18;101760.91;6307030;22;45391;-93
2022/07/18 07:51:17;;;;;;;;;8.00;8.00;;;;;29.47;47.54;101759.88;6306662;22;47050;-94
2022/07/18 07:53:42;;;;;;;;;9.67;9.33;;;;;29.56;47.37;101754.28;6301387;22;45460;-91
2022/07/18 07:56:08;;;;;;;;;8.33;6.67;;;;;29.67;47.93;101754.06;6305466;22;45401;-92
2022/07/18 07:58:33;;;;;;;;;8.33;6.67;;;;;29.76;47.33;101754.84;6333374;22;45164;-94
2022/07/18 08:00:58;;;;;;;;;10.33;8.00;;;;;29.86;47.15;101751.03;6331144;22;47638;-92
2022/07/18 08:03:24;;;;;;;;;12.00;9.00;;;;;29.97;47.02;101756.19;6304652;22;45463;-93
2022/07/18 08:05:50;;;;;;;;;6.67;6.33;;;;;30.11;46.74;101764.06;6306661;22;45506;-94
2022/07/18 08:08:17;;;;;;;;;9.00;9.00;;;;;30.19;46.81;101760.28;6333949;22;45511;-93
2022/07/18 08:10:43;;;;;;;;;9.67;8.00;;;;;30.32;46.92;101763.59;6306080;22;47200;-93
2022/07/18 08:13:10;;;;;;;;;5.33;5.33;;;;;30.35;45.45;101755.47;6334323;22;45323;-93
2022/07/18 08:15:35;;;;;;;;;7.33;5.33;;;;;30.51;45.84;101755.13;6333576;22;45652;-94
2022/07/18 08:18:01;;;;;;;;;5.67;5.00;;;;;30.64;45.38;101751.16;6306824;22;45543;-93
2022/07/18 08:20:26;;;;;;;;;7.33;6.00;;;;;30.71;44.53;101746.50;6305966;22;47166;-93
2022/07/18 08:23:03;;;;;;;;;7.00;6.00;;;;;30.82;44.41;101740.84;6305392;22;45530;-93
2022/07/18 08:25:31;;;;;;;;;8.33;4.67;;;;;30.96;44.75;101745.94;6306007;22;45329;-93
2022/07/18 08:27:58;;;;;;;;;6.00;4.67;;;;;31.12;44.59;101753.66;6333774;22;45316;-93
2022/07/18 08:30:24;;;;;;;;;5.00;5.00;;;;;31.20;44.29;101750.75;6331308;22;47765;-92
2022/07/18 08:32:50;;;;;;;;;6.00;5.33;;;;;31.32;44.21;101753.13;6305896;22;46022;-92
2022/07/18 08:35:15;;;;;;;;;4.00;4.00;;;;;31.43;43.79;101758.28;6332478;22;45413;-92
2022/07/18 08:37:41;;;;;;;;;4.33;4.00;;;;;31.53;43.10;101763.47;6306547;22;45337;-92
2022/07/18 08:40:07;;;;;;;;;5.00;5.00;;;;;31.62;43.06;101762.34;6333769;22;45576;-92
2022/07/18 08:42:34;;;;;;;;;5.00;5.00;;;;;31.75;43.17;101771.03;6300112;22;45566;-93
2022/07/18 08:45:00;;;;;;;;;5.00;5.00;;;;;31.84;43.69;101761.72;6305398;22;45673;-93
2022/07/18 08:47:27;;;;;;;;;6.00;6.00;;;;;31.90;43.05;101761.56;6332332;22;45292;-93
2022/07/18 08:49:53;;;;;;;;;5.33;5.00;;;;;31.98;42.59;101759.47;6331773;22;48133;-92
2022/07/18 08:52:20;;;;;;;;;7.00;6.67;;;;;32.10;41.83;101757.38;6305488;22;45559;-92
2022/07/18 08:54:46;;;;;;;;;8.67;8.67;;;;;32.24;42.73;101759.66;6332822;22;45634;-92
2022/07/18 08:57:11;;;;;;;;;9.00;7.33;;;;;32.34;42.36;101746.72;6333999;22;45415;-93
2022/07/18 08:59:37;;;;;;;;;6.00;5.33;;;;;32.42;42.18;101754.63;6305568;22;47428;-92
2022/07/18 09:02:02;;;;;;;;;8.00;7.33;;;;;32.56;42.44;101760.47;6305871;22;45570;-93
2022/07/18 09:04:38;;;;;;;;;6.00;6.00;;;;;32.68;42.59;101752.88;6334400;22;45316;-93
2022/07/18 09:07:08;;;;;;;;;7.33;6.67;;;;;32.82;42.29;101757.88;6305493;22;45445;-93
2022/07/18 09:09:34;;;;;;;;;6.00;6.00;;;;;32.88;41.94;101745.91;6333621;22;45409;-92
2022/07/18 09:12:03;;;;;;;;;5.00;5.00;;;;;33.02;42.14;101756.31;6307778;22;44748;-91
2022/07/18 09:14:35;;;;;;;;;6.00;5.00;;;;;33.07;42.00;101754.31;6309179;22;45555;-92
2022/07/18 09:17:02;;;;;;;;;4.33;4.33;;;;;33.18;41.58;101753.06;6336732;22;45475;-93
2022/07/18 09:19:27;;;;;;;;;8.33;6.33;;;;;33.27;41.66;101760.06;6308643;22;47146;-93
2022/07/18 09:21:52;;;;;;;;;6.00;5.00;;;;;33.39;41.29;101758.72;6309181;22;45510;-91
2022/07/18 09:24:18;;;;;;;;;8.00;6.00;;;;;33.51;41.61;101755.56;6336587;22;45311;-92
2022/07/18 09:26:45;;;;;;;;;6.00;6.00;;;;;33.63;40.87;101759.66;6337416;22;45393;-93
2022/07/18 09:29:15;;;;;;;;;5.00;5.00;;;;;33.75;40.90;101757.44;6308792;22;48379;-92
2022/07/18 09:31:48;;;;;;;;;6.00;6.00;;;;;33.86;40.55;101759.78;6308792;22;45315;-93
2022/07/18 09:34:14;;;;;;;;;6.67;5.33;;;;;33.95;40.92;101766.69;6337339;22;45256;-92
2022/07/18 09:36:54;;;;;;;;;9.00;7.00;;;;;34.06;40.23;101760.84;6309406;22;44871;-91
2022/07/18 09:39:20;;;;;;;;;8.33;6.00;;;;;34.19;40.62;101766.69;6342959;22;45439;-93
2022/07/18 09:41:46;;;;;;;;;6.00;5.00;;;;;34.38;40.08;101761.44;6311663;22;45722;-91
2022/07/18 09:44:16;;;;;;;;;6.00;6.00;;;;;34.69;39.72;101763.88;6308345;22;45322;-93
2022/07/18 09:47:02;;;;;;;;;4.67;4.33;;;;;34.86;39.77;101761.34;6334805;22;45651;-92
2022/07/18 09:49:39;;;;;;;;;5.00;5.00;;;;;34.98;38.92;101759.03;6336322;22;45282;-92
2022/07/18 09:52:07;;;;;;;;;4.67;4.67;;;;;35.11;38.68;101764.84;6306286;22;45350;-91
2022/07/18 09:54:37;;;;;;;;;6.00;6.00;;;;;35.26;38.90;101755.09;6335233;22;45327;-91
2022/07/18 09:57:02;;;;;;;;;4.00;4.00;;;;;35.57;39.18;101761.06;6300415;22;45524;-92
2022/07/18 09:59:28;;;;;;;;;6.00;6.00;;;;;36.03;39.03;101754.44;6337050;22;46583;-93
2022/07/18 10:01:54;;;;;;;;;5.33;4.33;;;;;36.37;37.43;101756.50;6307909;22;45573;-92
2022/07/18 10:04:20;;;;;;;;;5.33;5.33;;;;;36.73;37.37;101750.19;6336814;22;45371;-93
2022/07/18 10:06:45;;;;;;;;;8.00;7.00;;;;;37.21;37.43;101757.78;6308434;22;45544;-92
2022/07/18 10:09:11;;;;;;;;;4.33;4.33;;;;;37.62;37.57;101747.50;6307264;22;47297;-92
2022/07/18 10:11:36;;;;;;;;;7.00;6.67;;;;;38.25;36.82;101748.63;6308921;22;45613;-92
2022/07/18 10:14:02;;;;;;;;;5.00;5.00;;;;;39.18;36.05;101746.91;6314188;22;45624;-95
2022/07/18 10:16:28;;;;;;;;;6.00;6.00;;;;;40.47;36.07;101733.34;6339681;22;45487;-94
2022/07/18 10:19:27;;;;;;;;;5.00;5.00;;;;;42.23;35.60;101735.78;6323143;22;45631;-96
2022/07/18 10:21:54;;;;;;;;;4.33;4.33;;;;;44.23;33.85;101718.34;6297439;22;45222;-96
2022/07/18 10:24:28;;;;;;;;;4.67;4.67;;;;;45.73;33.35;101731.31;6314123;22;45438;-96
2022/07/18 10:27:36;;;;;;;;;7.33;5.00;;;;;47.06;32.25;101732.06;6315951;22;45596;-96
2022/07/18 10:30:40;;;;;;;;;4.67;4.67;;;;;47.87;31.04;101743.59;6197389;22;46631;-96
2022/07/18 10:33:45;;;;;;;;;6.00;6.00;;;;;48.23;30.95;101741.91;6194505;22;45491;-96
2022/07/18 10:36:16;;;;;;;;;4.00;3.00;;;;;48.75;29.98;101740.31;6197291;22;45374;-96
2022/07/18 10:39:20;;;;;;;;;5.00;5.00;;;;;49.95;30.34;101739.75;6197067;22;45236;-96
2022/07/18 10:42:30;;;;;;;;;7.00;6.67;;;;;51.50;29.14;101729.94;6184096;22;47735;-96
2022/07/18 10:44:56;;;;;;;;;6.00;6.00;;;;;52.57;27.35;101737.00;6216184;22;45593;-96
2022/07/18 10:48:03;;;;;;;;;5.33;5.33;;;;;53.02;27.78;101726.91;6194110;22;45569;-96
2022/07/18 10:51:16;;;;;;;;;5.00;4.33;;;;;53.99;26.84;101723.25;6191273;22;44899;-96
2022/07/18 10:54:06;;;;;;;;;6.67;5.67;;;;;55.27;26.20;101749.78;6193481;22;47209;-96
2022/07/18 10:56:58;;;;;;;;;5.33;5.33;;;;;56.32;25.57;101731.91;6185937;22;46025;-96
2022/07/18 10:59:28;;;;;;;;;5.67;5.67;;;;;57.27;25.00;101731.81;6195086;22;45470;-96
2022/07/18 11:01:58;;;;;;;;;4.00;4.00;;;;;58.03;24.71;101741.63;6187448;22;45575;-96
2022/07/18 11:04:26;;;;;;;;;6.67;6.00;;;;;58.91;24.04;101756.97;6184755;22;47114;-96
2022/07/18 11:06:57;;;;;;;;;5.00;5.00;;;;;59.50;23.96;101741.47;6230274;22;45448;-96
2022/07/18 11:09:36;;;;;;;;;5.00;5.00;;;;;60.22;23.25;101733.19;6304648;22;45808;-96
2022/07/18 11:12:18;;;;;;;;;6.00;6.00;;;;;60.84;22.67;101738.63;6304932;22;45497;-96
2022/07/18 11:15:07;;;;;;;;;5.00;5.00;;;;;61.44;22.25;101746.16;6304330;22;47274;-95
2022/07/18 11:17:54;;;;;;;;;6.50;5.25;;;;;62.06;21.64;101748.44;6304692;22;45771;-96
2022/07/18 11:20:36;;;;;;;;;5.75;5.50;;;;;62.49;21.44;101736.63;6303745;22;45485;-93
2022/07/18 11:23:14;;;;;;;;;4.50;4.50;;;;;62.77;21.12;101734.75;6307403;22;45238;-95
2022/07/18 11:25:40;;;;;;;;;5.00;4.50;;;;;63.08;20.47;101737.16;6333667;22;47044;-94
2022/07/18 11:28:10;;;;;;;;;4.00;4.00;;;;;63.51;20.43;101734.50;6308427;22;45480;-95
2022/07/18 11:30:37;;;;;;;;;5.75;5.00;;;;;64.00;20.41;101729.03;6308674;22;45392;-94